Lafayette, IN (47907)

8:18 PM EST on March 06, 2015 (GMT -0500)
APRSWXNET Lafayette IN US | Change Station
CLOSE
Current Station
Personal Weather Station
Location: Lafayette, IN
Elevation: 662 ft
Nearby Weather Stations

Elev 662 ft 40.38 °N, 86.89 °W | Updated 35 minutes ago

Clear
Clear
24 °F
Feels Like 19 °F
N
4
Wind Variable Wind from SW
Gusts 8.0 mph

Today
High -- | Low -- °F
--% Chance of Precip.
Yesterday
High -- | Low -- °F
Precip. -- in
7:13 AM 6:44 PM
Full, 99% visible
Pressure 30.34 in
Visibility 10.0 miles
Clouds Clear
Windchill 19 °F
Dew Point 14 °F
Humidity 66%
Rainfall in
Snow Depth Not available.
UV 0 out of 12
Pollen 1.60 out of 12
Air Quality Not available.
Flu Activity Not available.
METAR KLAF 070054Z 22004KT 10SM CLR M06/M12 A3030 RMK AO2 SLP273 T10561122

More Conditions Fewer Conditions

Pressure 30.34 in
Visibility 10.0 miles
Clouds Clear
Windchill 19 °F
Dew Point 14 °F
Humidity 66%
Rainfall in
Snow Depth Not available.
UV 0 out of 12
Pollen 1.60 out of 12
Air Quality Not available.
Flu Activity Not available.
METAR KLAF 070054Z 22004KT 10SM CLR M06/M12 A3030 RMK AO2 SLP273 T10561122

More Conditions Fewer Conditions

10-Day Weather Forecast

Almanac

Astronomy

Mar. 06, 2015 Rise Set
Actual Time
Civil Twilight
Nautical Twilight
Astronomical Twilight
Moon
Length of Visible Light
Length of Day
Tomorrow will be .
, % of the Moon is Illuminated

Today's Extremes

State Highs State Lows

Community

WunderPhotos

Upload Photos

1,803,480 photos uploaded!

WunderBlogs® & News

Nearby

Air Quality

  Air Quality AQ Index Pollutant
Not available.

Snow Depth

Station Depth Elevation

Earthquake Activity

City Distance Mag. Time & Date
Minimum magnitude displayed is 2.5.

Coastal Water Temperatures

Place Temperature

Nearby Weather Stations